Svogerslev, Denmark
Current Conditions -  °F | °C
As of 6:20 PM on Thursday 18 Dec 2014 (Local Time) from EKRK Reporting Station
Light Rain Light Rain  
Wind Chill: 41°   Ceiling: 700
Heat Index: 48°   Visibility: 2.6mi
Dew Point: 48°   Wind: 20mph
Humidity: 100%   Direction: 230°SW
Pressure: 29.41"   Gusts: NA
Location:  55.63°N, 12.01°E
Report Text: EKRK 181720Z AUTO 23017KT 4300NDV -RA BR FEW004/// BKN007///OVC010/// 09/09 Q0996
Loading
Personal Weather Stations






























Interactive Weather Map New forecast layout! Learn more

10-Day Weather Forecast

Advertisements
Track Severe Weather on mobile